If you wish to contribute or participate in the discussions about articles you are invited to join SKYbrary as a registered user

 Actions

Alice Springs Airport

From SKYbrary Wiki

YBAS
Airport
ICAO: YBAS – IATA: ASP
Summary
Name Alice Springs Airport
Region Asia and Pacific
Territory Australia AU.gif
Location , Northern Territory
Serving Alice Springs
Elevation 545.287 m <br />1,789 ft <br />1,789 ft545.287 m <br />
Type medium airport
Coordinates 23° 48' 24.01" S, 133° 54' 7.99" E
Runways
Designator Length Width Surface ROPS
12/30 2438 m7,998.688 ft <br /> 45 m147.638 ft <br /> ASP yes/yes
17/35 1133 m3,717.192 ft <br /> 18 m59.055 ft <br /> ASP yes/yes


METAR
Observation YBAS 172000Z AUTO 17004KT 9999 // NCD 07/03 Q1022
Station Alice Springs Aerodrome
Date/Time 17 April 2021 20:00:00
Wind direction 170°
Wind speed 04 kts
Lowest cloud amount no clouds detected
Temperature 7°C
Dew point 3°C
Humidity 75%
QNH 1022 hPa
Weather condition n/a